sensor_id;sensor_type;location;lat;lon;timestamp;pressure;altitude;pressure_sealevel;temperature;humidity
34241;BME280;20503;50.200;19.508;2024-02-04T00:00:10;101113.88;;;11.86;58.67
34241;BME280;20503;50.200;19.508;2024-02-04T00:01:14;101108.72;;;11.83;57.50
34241;BME280;20503;50.200;19.508;2024-02-04T00:02:20;101101.66;;;11.92;58.50
34241;BME280;20503;50.200;19.508;2024-02-04T00:03:25;101101.14;;;11.54;58.91
34241;BME280;20503;50.200;19.508;2024-02-04T00:04:26;101104.17;;;10.95;61.08
34241;BME280;20503;50.200;19.508;2024-02-04T00:05:29;101103.95;;;11.53;59.57
34241;BME280;20503;50.200;19.508;2024-02-04T00:06:31;101093.68;;;11.35;60.03
34241;BME280;20503;50.200;19.508;2024-02-04T00:07:41;101109.29;;;11.32;60.34
34241;BME280;20503;50.200;19.508;2024-02-04T00:08:42;101097.63;;;11.09;60.83
34241;BME280;20503;50.200;19.508;2024-02-04T00:09:43;101093.68;;;11.24;60.26
34241;BME280;20503;50.200;19.508;2024-02-04T00:10:46;101085.09;;;11.19;60.54
34241;BME280;20503;50.200;19.508;2024-02-04T00:11:47;101081.20;;;11.55;59.35
34241;BME280;20503;50.200;19.508;2024-02-04T00:12:48;101084.38;;;11.60;59.92
34241;BME280;20503;50.200;19.508;2024-02-04T00:13:50;101082.31;;;11.96;58.20
34241;BME280;20503;50.200;19.508;2024-02-04T00:14:51;101081.23;;;11.44;59.33
34241;BME280;20503;50.200;19.508;2024-02-04T00:15:52;101087.25;;;11.48;59.05
34241;BME280;20503;50.200;19.508;2024-02-04T00:16:55;101084.95;;;11.32;60.07
34241;BME280;20503;50.200;19.508;2024-02-04T00:17:56;101075.16;;;10.75;61.85
34241;BME280;20503;50.200;19.508;2024-02-04T00:18:57;101089.41;;;10.66;61.91
34241;BME280;20503;50.200;19.508;2024-02-04T00:19:59;101085.10;;;10.97;60.94
34241;BME280;20503;50.200;19.508;2024-02-04T00:21:01;101093.58;;;10.81;62.33
34241;BME280;20503;50.200;19.508;2024-02-04T00:22:19;101093.58;;;10.58;62.77
34241;BME280;20503;50.200;19.508;2024-02-04T00:23:22;101091.24;;;10.76;62.39
34241;BME280;20503;50.200;19.508;2024-02-04T00:24:23;101086.70;;;10.77;62.30
34241;BME280;20503;50.200;19.508;2024-02-04T00:25:25;101095.77;;;11.21;60.51
34241;BME280;20503;50.200;19.508;2024-02-04T00:26:27;101101.16;;;11.43;59.68
34241;BME280;20503;50.200;19.508;2024-02-04T00:27:28;101100.70;;;10.93;60.96
34241;BME280;20503;50.200;19.508;2024-02-04T00:28:29;101094.81;;;10.88;61.77
34241;BME280;20503;50.200;19.508;2024-02-04T00:29:30;101099.85;;;11.04;61.33
34241;BME280;20503;50.200;19.508;2024-02-04T00:30:31;101103.01;;;10.53;63.09
34241;BME280;20503;50.200;19.508;2024-02-04T00:31:38;101114.84;;;11.19;61.40
34241;BME280;20503;50.200;19.508;2024-02-04T00:32:40;101096.20;;;11.59;59.82
34241;BME280;20503;50.200;19.508;2024-02-04T00:33:41;101104.64;;;11.23;60.54
34241;BME280;20503;50.200;19.508;2024-02-04T00:34:42;101100.80;;;11.36;60.69
34241;BME280;20503;50.200;19.508;2024-02-04T00:35:43;101106.60;;;10.76;61.89
34241;BME280;20503;50.200;19.508;2024-02-04T00:36:45;101097.28;;;10.91;62.33
34241;BME280;20503;50.200;19.508;2024-02-04T00:37:46;101103.92;;;10.98;61.67
34241;BME280;20503;50.200;19.508;2024-02-04T00:38:48;101099.54;;;11.52;60.50
34241;BME280;20503;50.200;19.508;2024-02-04T00:39:50;101106.99;;;10.82;62.56
34241;BME280;20503;50.200;19.508;2024-02-04T00:40:51;101104.27;;;11.05;62.04
34241;BME280;20503;50.200;19.508;2024-02-04T00:41:55;101105.26;;;11.26;61.42
34241;BME280;20503;50.200;19.508;2024-02-04T00:42:56;101099.98;;;10.91;62.34
34241;BME280;20503;50.200;19.508;2024-02-04T00:43:57;101100.63;;;11.60;59.88
34241;BME280;20503;50.200;19.508;2024-02-04T00:44:58;101106.01;;;11.72;59.59
34241;BME280;20503;50.200;19.508;2024-02-04T00:45:59;101106.94;;;11.50;60.39
34241;BME280;20503;50.200;19.508;2024-02-04T00:47:02;101106.82;;;11.95;59.71
34241;BME280;20503;50.200;19.508;2024-02-04T00:48:05;101103.94;;;12.07;58.00
34241;BME280;20503;50.200;19.508;2024-02-04T00:49:25;101109.98;;;11.56;59.72
34241;BME280;20503;50.200;19.508;2024-02-04T00:50:52;101108.07;;;11.79;59.27
34241;BME280;20503;50.200;19.508;2024-02-04T00:51:53;101095.49;;;11.90;58.40
34241;BME280;20503;50.200;19.508;2024-02-04T00:52:55;101110.46;;;12.05;58.00
34241;BME280;20503;50.200;19.508;2024-02-04T00:53:56;101100.63;;;12.25;57.25
34241;BME280;20503;50.200;19.508;2024-02-04T00:54:58;101099.59;;;11.84;57.83
34241;BME280;20503;50.200;19.508;2024-02-04T00:56:03;101109.44;;;11.19;60.54
34241;BME280;20503;50.200;19.508;2024-02-04T00:57:05;101098.52;;;11.64;59.81
34241;BME280;20503;50.200;19.508;2024-02-04T00:58:16;101105.56;;;11.55;59.67
34241;BME280;20503;50.200;19.508;2024-02-04T00:59:18;101104.37;;;11.92;58.84
34241;BME280;20503;50.200;19.508;2024-02-04T01:00:20;101103.98;;;11.96;58.48
34241;BME280;20503;50.200;19.508;2024-02-04T01:01:21;101098.55;;;11.96;58.83
34241;BME280;20503;50.200;19.508;2024-02-04T01:02:23;101104.02;;;11.85;58.68
34241;BME280;20503;50.200;19.508;2024-02-04T01:03:24;101093.68;;;11.79;58.96
34241;BME280;20503;50.200;19.508;2024-02-04T01:04:51;101098.03;;;11.70;59.23
34241;BME280;20503;50.200;19.508;2024-02-04T01:05:53;101092.75;;;11.57;59.13
34241;BME280;20503;50.200;19.508;2024-02-04T01:06:56;101094.95;;;10.86;61.03
34241;BME280;20503;50.200;19.508;2024-02-04T01:07:57;101093.88;;;11.55;60.04
34241;BME280;20503;50.200;19.508;2024-02-04T01:08:59;101090.64;;;12.04;58.56
34241;BME280;20503;50.200;19.508;2024-02-04T01:10:01;101083.42;;;11.94;57.86
34241;BME280;20503;50.200;19.508;2024-02-04T01:11:04;101084.91;;;11.54;59.75
34241;BME280;20503;50.200;19.508;2024-02-04T01:12:07;101091.43;;;11.95;58.52
34241;BME280;20503;50.200;19.508;2024-02-04T01:13:09;101081.87;;;12.33;57.36
34241;BME280;20503;50.200;19.508;2024-02-04T01:14:12;101080.59;;;11.95;57.42
34241;BME280;20503;50.200;19.508;2024-02-04T01:15:14;101083.42;;;11.94;58.50
34241;BME280;20503;50.200;19.508;2024-02-04T01:16:15;101079.13;;;11.48;59.23
34241;BME280;20503;50.200;19.508;2024-02-04T01:17:37;101089.97;;;11.36;60.26
34241;BME280;20503;50.200;19.508;2024-02-04T01:18:38;101079.35;;;11.56;59.10
34241;BME280;20503;50.200;19.508;2024-02-04T01:19:39;101082.14;;;11.66;59.04
34241;BME280;20503;50.200;19.508;2024-02-04T01:20:41;101082.10;;;11.88;58.42
34241;BME280;20503;50.200;19.508;2024-02-04T01:21:42;101080.45;;;11.10;60.61
34241;BME280;20503;50.200;19.508;2024-02-04T01:22:45;101086.56;;;11.01;61.20
34241;BME280;20503;50.200;19.508;2024-02-04T01:23:46;101073.03;;;11.23;60.65
34241;BME280;20503;50.200;19.508;2024-02-04T01:24:47;101074.23;;;9.94;64.45
34241;BME280;20503;50.200;19.508;2024-02-04T01:25:51;101066.92;;;10.54;63.30
34241;BME280;20503;50.200;19.508;2024-02-04T01:26:52;101066.25;;;11.29;61.00
34241;BME280;20503;50.200;19.508;2024-02-04T01:27:53;101069.52;;;11.55;59.53
34241;BME280;20503;50.200;19.508;2024-02-04T01:28:55;101069.49;;;11.11;60.41
34241;BME280;20503;50.200;19.508;2024-02-04T01:29:56;101071.66;;;11.29;59.89
34241;BME280;20503;50.200;19.508;2024-02-04T01:30:57;101071.16;;;11.78;59.76
34241;BME280;20503;50.200;19.508;2024-02-04T01:31:58;101073.59;;;11.81;59.00
34241;BME280;20503;50.200;19.508;2024-02-04T01:32:59;101066.41;;;12.03;58.29
34241;BME280;20503;50.200;19.508;2024-02-04T01:34:01;101065.62;;;12.12;58.48
34241;BME280;20503;50.200;19.508;2024-02-04T01:35:03;101061.70;;;12.05;58.03
34241;BME280;20503;50.200;19.508;2024-02-04T01:36:04;101064.62;;;12.13;58.55
34241;BME280;20503;50.200;19.508;2024-02-04T01:37:06;101053.39;;;12.18;57.00
34241;BME280;20503;50.200;19.508;2024-02-04T01:38:07;101065.36;;;12.36;56.94
34241;BME280;20503;50.200;19.508;2024-02-04T01:39:08;101052.91;;;12.33;56.40
34241;BME280;20503;50.200;19.508;2024-02-04T01:40:11;101050.16;;;12.24;57.31
34241;BME280;20503;50.200;19.508;2024-02-04T01:41:14;101051.27;;;12.21;58.23
34241;BME280;20503;50.200;19.508;2024-02-04T01:42:16;101048.05;;;12.06;57.36
34241;BME280;20503;50.200;19.508;2024-02-04T01:43:18;101056.34;;;11.18;59.84
34241;BME280;20503;50.200;19.508;2024-02-04T01:44:21;101066.77;;;11.23;60.23
34241;BME280;20503;50.200;19.508;2024-02-04T01:45:24;101062.60;;;11.19;60.07
34241;BME280;20503;50.200;19.508;2024-02-04T01:46:26;101052.07;;;10.82;61.46
34241;BME280;20503;50.200;19.508;2024-02-04T01:47:28;101043.48;;;11.43;60.19
34241;BME280;20503;50.200;19.508;2024-02-04T01:48:29;101044.27;;;11.98;58.68
34241;BME280;20503;50.200;19.508;2024-02-04T01:49:30;101044.80;;;11.92;58.39
34241;BME280;20503;50.200;19.508;2024-02-04T01:50:32;101047.95;;;11.65;58.75
34241;BME280;20503;50.200;19.508;2024-02-04T01:51:33;101046.20;;;12.07;57.79
34241;BME280;20503;50.200;19.508;2024-02-04T01:52:37;101050.87;;;11.84;58.35
34241;BME280;20503;50.200;19.508;2024-02-04T01:53:42;101045.24;;;11.21;59.37
34241;BME280;20503;50.200;19.508;2024-02-04T01:54:46;101045.24;;;11.65;58.51
34241;BME280;20503;50.200;19.508;2024-02-04T01:55:47;101043.79;;;11.60;59.11
34241;BME280;20503;50.200;19.508;2024-02-04T01:56:50;101043.21;;;10.91;61.34
34241;BME280;20503;50.200;19.508;2024-02-04T01:57:52;101049.65;;;11.33;60.55
34241;BME280;20503;50.200;19.508;2024-02-04T01:58:54;101042.74;;;11.84;58.19
34241;BME280;20503;50.200;19.508;2024-02-04T01:59:56;101035.04;;;11.25;58.88
34241;BME280;20503;50.200;19.508;2024-02-04T02:00:58;101046.16;;;10.54;62.30
34241;BME280;20503;50.200;19.508;2024-02-04T02:02:19;101046.05;;;10.78;61.25
34241;BME280;20503;50.200;19.508;2024-02-04T02:03:21;101046.30;;;10.75;61.56
34241;BME280;20503;50.200;19.508;2024-02-04T02:04:24;101038.54;;;10.48;62.34
34241;BME280;20503;50.200;19.508;2024-02-04T02:05:26;101046.30;;;10.75;62.01
34241;BME280;20503;50.200;19.508;2024-02-04T02:06:28;101047.64;;;10.12;64.26
34241;BME280;20503;50.200;19.508;2024-02-04T02:07:30;101052.69;;;10.74;61.95
34241;BME280;20503;50.200;19.508;2024-02-04T02:08:32;101047.99;;;10.65;62.44
34241;BME280;20503;50.200;19.508;2024-02-04T02:09:33;101044.91;;;11.15;61.45
34241;BME280;20503;50.200;19.508;2024-02-04T02:10:35;101049.16;;;11.28;60.26
34241;BME280;20503;50.200;19.508;2024-02-04T02:11:46;101048.40;;;11.37;59.47
34241;BME280;20503;50.200;19.508;2024-02-04T02:13:00;101048.31;;;11.28;60.76
34241;BME280;20503;50.200;19.508;2024-02-04T02:14:19;101047.39;;;10.50;62.96
34241;BME280;20503;50.200;19.508;2024-02-04T02:15:27;101045.29;;;11.10;60.57
34241;BME280;20503;50.200;19.508;2024-02-04T02:16:31;101040.26;;;11.49;60.31
34241;BME280;20503;50.200;19.508;2024-02-04T02:17:44;101037.85;;;11.34;60.12
34241;BME280;20503;50.200;19.508;2024-02-04T02:20:12;101052.12;;;11.25;60.52
34241;BME280;20503;50.200;19.508;2024-02-04T02:22:50;101063.20;;;11.66;59.09
34241;BME280;20503;50.200;19.508;2024-02-04T02:25:07;101066.79;;;11.66;59.34
34241;BME280;20503;50.200;19.508;2024-02-04T02:26:10;101073.75;;;11.25;60.56
34241;BME280;20503;50.200;19.508;2024-02-04T02:27:12;101074.96;;;11.44;59.62
34241;BME280;20503;50.200;19.508;2024-02-04T02:28:13;101086.32;;;11.15;60.93
34241;BME280;20503;50.200;19.508;2024-02-04T02:29:15;101082.87;;;11.24;60.21
34241;BME280;20503;50.200;19.508;2024-02-04T02:30:17;101099.96;;;10.69;61.80
34241;BME280;20503;50.200;19.508;2024-02-04T02:31:37;101113.30;;;10.36;63.10
34241;BME280;20503;50.200;19.508;2024-02-04T02:32:51;101095.66;;;9.84;65.23
34241;BME280;20503;50.200;19.508;2024-02-04T02:33:53;101106.50;;;9.96;65.26
34241;BME280;20503;50.200;19.508;2024-02-04T02:34:54;101105.56;;;10.08;64.47
34241;BME280;20503;50.200;19.508;2024-02-04T02:35:57;101112.77;;;9.72;65.73
34241;BME280;20503;50.200;19.508;2024-02-04T02:37:09;101092.63;;;9.89;65.35
34241;BME280;20503;50.200;19.508;2024-02-04T02:38:37;101099.55;;;10.40;63.78
34241;BME280;20503;50.200;19.508;2024-02-04T02:39:32;101098.26;;;10.21;63.70
34241;BME280;20503;50.200;19.508;2024-02-04T02:40:48;101094.57;;;9.87;64.92
34241;BME280;20503;50.200;19.508;2024-02-04T02:42:04;101093.27;;;10.04;64.53
34241;BME280;20503;50.200;19.508;2024-02-04T02:43:08;101089.27;;;10.09;63.81
34241;BME280;20503;50.200;19.508;2024-02-04T02:44:19;101082.57;;;9.91;64.07
34241;BME280;20503;50.200;19.508;2024-02-04T02:45:31;101093.53;;;10.36;63.49
34241;BME280;20503;50.200;19.508;2024-02-04T02:46:36;101088.80;;;11.07;60.80
34241;BME280;20503;50.200;19.508;2024-02-04T02:47:39;101095.03;;;10.51;62.14
34241;BME280;20503;50.200;19.508;2024-02-04T02:48:42;101080.83;;;10.94;61.79
34241;BME280;20503;50.200;19.508;2024-02-04T02:49:44;101079.34;;;10.79;61.06
34241;BME280;20503;50.200;19.508;2024-02-04T02:50:47;101081.55;;;10.62;62.07
34241;BME280;20503;50.200;19.508;2024-02-04T02:52:01;101083.66;;;10.81;61.31
34241;BME280;20503;50.200;19.508;2024-02-04T02:53:09;101086.20;;;10.60;61.50
34241;BME280;20503;50.200;19.508;2024-02-04T02:54:10;101087.18;;;11.04;60.75
34241;BME280;20503;50.200;19.508;2024-02-04T02:55:15;101094.30;;;11.28;60.09
34241;BME280;20503;50.200;19.508;2024-02-04T02:56:18;101087.43;;;11.12;60.01
34241;BME280;20503;50.200;19.508;2024-02-04T02:57:20;101091.24;;;10.76;61.29
34241;BME280;20503;50.200;19.508;2024-02-04T02:58:21;101092.84;;;10.68;61.51
34241;BME280;20503;50.200;19.508;2024-02-04T02:59:22;101098.30;;;10.32;62.22
34241;BME280;20503;50.200;19.508;2024-02-04T03:00:24;101100.20;;;10.54;61.11
34241;BME280;20503;50.200;19.508;2024-02-04T03:01:45;101111.57;;;10.35;62.12
34241;BME280;20503;50.200;19.508;2024-02-04T03:02:46;101099.60;;;10.62;62.11
34241;BME280;20503;50.200;19.508;2024-02-04T03:03:47;101098.56;;;10.29;62.37
34241;BME280;20503;50.200;19.508;2024-02-04T03:04:49;101093.21;;;10.63;61.19
34241;BME280;20503;50.200;19.508;2024-02-04T03:05:50;101103.14;;;9.81;63.70
34241;BME280;20503;50.200;19.508;2024-02-04T03:06:52;101088.28;;;10.46;61.85
34241;BME280;20503;50.200;19.508;2024-02-04T03:07:53;101090.70;;;10.26;61.38
34241;BME280;20503;50.200;19.508;2024-02-04T03:09:06;101096.49;;;10.44;62.16
34241;BME280;20503;50.200;19.508;2024-02-04T03:10:08;101089.13;;;10.11;61.68
34241;BME280;20503;50.200;19.508;2024-02-04T03:11:24;101093.49;;;9.66;63.48
34241;BME280;20503;50.200;19.508;2024-02-04T03:12:25;101082.11;;;9.97;62.80
34241;BME280;20503;50.200;19.508;2024-02-04T03:13:27;101079.20;;;10.11;61.91
34241;BME280;20503;50.200;19.508;2024-02-04T03:14:29;101074.82;;;9.38;62.85
34241;BME280;20503;50.200;19.508;2024-02-04T03:15:31;101070.47;;;9.25;64.09
34241;BME280;20503;50.200;19.508;2024-02-04T03:16:33;101072.06;;;9.75;63.31
34241;BME280;20503;50.200;19.508;2024-02-04T03:17:34;101057.30;;;9.68;62.79
34241;BME280;20503;50.200;19.508;2024-02-04T03:18:38;101060.56;;;9.84;62.63
34241;BME280;20503;50.200;19.508;2024-02-04T03:19:40;101062.98;;;9.76;62.62
34241;BME280;20503;50.200;19.508;2024-02-04T03:20:41;101063.30;;;9.96;62.75
34241;BME280;20503;50.200;19.508;2024-02-04T03:21:43;101062.04;;;10.24;61.29
34241;BME280;20503;50.200;19.508;2024-02-04T03:22:45;101064.58;;;10.60;59.99
34241;BME280;20503;50.200;19.508;2024-02-04T03:23:46;101069.99;;;10.49;59.76
34241;BME280;20503;50.200;19.508;2024-02-04T03:24:48;101061.12;;;10.01;62.17
34241;BME280;20503;50.200;19.508;2024-02-04T03:25:50;101065.05;;;9.73;62.41
34241;BME280;20503;50.200;19.508;2024-02-04T03:26:51;101063.00;;;10.58;60.66
34241;BME280;20503;50.200;19.508;2024-02-04T03:27:52;101070.38;;;10.90;58.73
34241;BME280;20503;50.200;19.508;2024-02-04T03:28:56;101075.52;;;10.93;58.39
34241;BME280;20503;50.200;19.508;2024-02-04T03:29:57;101074.66;;;11.15;58.50
34241;BME280;20503;50.200;19.508;2024-02-04T03:30:59;101076.49;;;10.69;58.94
34241;BME280;20503;50.200;19.508;2024-02-04T03:32:00;101078.94;;;10.61;60.04
34241;BME280;20503;50.200;19.508;2024-02-04T03:33:01;101079.91;;;10.37;60.67
34241;BME280;20503;50.200;19.508;2024-02-04T03:34:22;101075.41;;;10.83;59.16
34241;BME280;20503;50.200;19.508;2024-02-04T03:35:23;101075.23;;;10.40;59.74
34241;BME280;20503;50.200;19.508;2024-02-04T03:36:28;101077.73;;;10.76;59.26
34241;BME280;20503;50.200;19.508;2024-02-04T03:37:29;101072.94;;;10.69;58.42
34241;BME280;20503;50.200;19.508;2024-02-04T03:38:31;101075.27;;;10.73;58.45
34241;BME280;20503;50.200;19.508;2024-02-04T03:39:32;101072.58;;;10.16;59.86
34241;BME280;20503;50.200;19.508;2024-02-04T03:40:33;101077.73;;;10.76;59.40
34241;BME280;20503;50.200;19.508;2024-02-04T03:41:34;101070.86;;;11.06;57.63
34241;BME280;20503;50.200;19.508;2024-02-04T03:42:45;101068.16;;;10.95;57.86
34241;BME280;20503;50.200;19.508;2024-02-04T03:43:47;101072.09;;;11.02;57.72
34241;BME280;20503;50.200;19.508;2024-02-04T03:44:49;101068.66;;;10.66;58.25
34241;BME280;20503;50.200;19.508;2024-02-04T03:45:50;101070.14;;;10.81;58.00
34241;BME280;20503;50.200;19.508;2024-02-04T03:47:05;101081.99;;;10.34;58.79
34241;BME280;20503;50.200;19.508;2024-02-04T03:48:06;101075.03;;;10.76;58.14
34241;BME280;20503;50.200;19.508;2024-02-04T03:49:08;101071.95;;;11.15;56.64
34241;BME280;20503;50.200;19.508;2024-02-04T03:50:12;101076.65;;;10.90;57.38
34241;BME280;20503;50.200;19.508;2024-02-04T03:51:18;101070.48;;;10.54;58.48
34241;BME280;20503;50.200;19.508;2024-02-04T03:52:38;101078.35;;;10.57;58.44
34241;BME280;20503;50.200;19.508;2024-02-04T03:53:42;101074.75;;;10.34;58.44
34241;BME280;20503;50.200;19.508;2024-02-04T03:54:44;101070.63;;;10.18;60.01
34241;BME280;20503;50.200;19.508;2024-02-04T03:55:45;101071.36;;;10.66;58.22
34241;BME280;20503;50.200;19.508;2024-02-04T03:56:47;101068.88;;;11.08;57.13
34241;BME280;20503;50.200;19.508;2024-02-04T03:57:48;101068.88;;;11.19;56.88
34241;BME280;20503;50.200;19.508;2024-02-04T03:58:49;101065.57;;;10.59;57.32
34241;BME280;20503;50.200;19.508;2024-02-04T03:59:51;101056.10;;;11.10;56.80
34241;BME280;20503;50.200;19.508;2024-02-04T04:00:52;101062.98;;;11.03;57.21
34241;BME280;20503;50.200;19.508;2024-02-04T04:01:53;101067.41;;;10.59;57.55
34241;BME280;20503;50.200;19.508;2024-02-04T04:02:57;101071.08;;;10.69;57.61
34241;BME280;20503;50.200;19.508;2024-02-04T04:04:18;101082.14;;;10.77;57.87
34241;BME280;20503;50.200;19.508;2024-02-04T04:05:20;101075.27;;;10.51;58.82
34241;BME280;20503;50.200;19.508;2024-02-04T04:06:46;101077.48;;;10.68;58.17
34241;BME280;20503;50.200;19.508;2024-02-04T04:07:49;101068.88;;;10.52;58.20
34241;BME280;20503;50.200;19.508;2024-02-04T04:09:16;101070.24;;;10.69;58.13
34241;BME280;20503;50.200;19.508;2024-02-04T04:10:18;101074.26;;;10.41;58.53
34241;BME280;20503;50.200;19.508;2024-02-04T04:11:19;101078.44;;;10.45;59.13
34241;BME280;20503;50.200;19.508;2024-02-04T04:12:20;101077.45;;;10.34;58.95
34241;BME280;20503;50.200;19.508;2024-02-04T04:13:21;101078.17;;;10.25;59.71
34241;BME280;20503;50.200;19.508;2024-02-04T04:14:36;101077.87;;;10.75;57.43
34241;BME280;20503;50.200;19.508;2024-02-04T04:15:37;101089.16;;;10.69;58.32
34241;BME280;20503;50.200;19.508;2024-02-04T04:16:39;101075.90;;;10.99;56.99
34241;BME280;20503;50.200;19.508;2024-02-04T04:17:40;101077.09;;;10.04;60.56
34241;BME280;20503;50.200;19.508;2024-02-04T04:18:41;101074.77;;;10.46;59.79
34241;BME280;20503;50.200;19.508;2024-02-04T04:19:42;101078.98;;;10.95;58.25
34241;BME280;20503;50.200;19.508;2024-02-04T04:20:44;101076.12;;;10.85;57.22
34241;BME280;20503;50.200;19.508;2024-02-04T04:21:45;101061.76;;;11.07;57.46
34241;BME280;20503;50.200;19.508;2024-02-04T04:22:46;101077.46;;;11.13;57.66
34241;BME280;20503;50.200;19.508;2024-02-04T04:23:48;101076.84;;;11.21;57.51
34241;BME280;20503;50.200;19.508;2024-02-04T04:24:49;101070.80;;;11.28;56.40
34241;BME280;20503;50.200;19.508;2024-02-04T04:25:50;101069.66;;;9.83;60.51
34241;BME280;20503;50.200;19.508;2024-02-04T04:26:52;101075.73;;;10.33;60.34
34241;BME280;20503;50.200;19.508;2024-02-04T04:27:53;101059.20;;;10.49;59.43
34241;BME280;20503;50.200;19.508;2024-02-04T04:28:59;101059.05;;;10.73;59.03
34241;BME280;20503;50.200;19.508;2024-02-04T04:30:00;101058.38;;;10.25;59.62
34241;BME280;20503;50.200;19.508;2024-02-04T04:31:01;101061.41;;;10.78;58.72
34241;BME280;20503;50.200;19.508;2024-02-04T04:32:19;101078.56;;;10.08;60.24
34241;BME280;20503;50.200;19.508;2024-02-04T04:33:22;101065.43;;;10.61;59.13
34241;BME280;20503;50.200;19.508;2024-02-04T04:34:23;101066.55;;;10.92;57.65
34241;BME280;20503;50.200;19.508;2024-02-04T04:35:24;101063.45;;;10.41;59.07
34241;BME280;20503;50.200;19.508;2024-02-04T04:36:26;101061.52;;;10.76;58.16
34241;BME280;20503;50.200;19.508;2024-02-04T04:37:47;101077.93;;;10.04;60.30
34241;BME280;20503;50.200;19.508;2024-02-04T04:38:48;101064.97;;;10.21;60.03
34241;BME280;20503;50.200;19.508;2024-02-04T04:39:51;101073.96;;;10.21;59.35
34241;BME280;20503;50.200;19.508;2024-02-04T04:40:53;101060.88;;;10.04;59.65
34241;BME280;20503;50.200;19.508;2024-02-04T04:41:54;101072.17;;;9.98;60.67
34241;BME280;20503;50.200;19.508;2024-02-04T04:42:55;101069.75;;;10.63;58.31
34241;BME280;20503;50.200;19.508;2024-02-04T04:43:57;101060.66;;;10.87;57.51
34241;BME280;20503;50.200;19.508;2024-02-04T04:44:58;101070.08;;;10.36;60.01
34241;BME280;20503;50.200;19.508;2024-02-04T04:46:01;101070.34;;;10.45;59.01
34241;BME280;20503;50.200;19.508;2024-02-04T04:47:02;101068.27;;;10.93;58.26
34241;BME280;20503;50.200;19.508;2024-02-04T04:48:04;101075.04;;;10.54;58.47
34241;BME280;20503;50.200;19.508;2024-02-04T04:49:09;101070.42;;;9.61;61.87
34241;BME280;20503;50.200;19.508;2024-02-04T04:50:10;101065.16;;;9.95;60.90
34241;BME280;20503;50.200;19.508;2024-02-04T04:51:12;101064.30;;;9.95;61.44
34241;BME280;20503;50.200;19.508;2024-02-04T04:52:14;101062.19;;;9.87;60.77
34241;BME280;20503;50.200;19.508;2024-02-04T04:53:15;101067.77;;;10.08;60.40
34241;BME280;20503;50.200;19.508;2024-02-04T04:54:17;101067.90;;;10.06;60.89
34241;BME280;20503;50.200;19.508;2024-02-04T04:55:19;101064.17;;;9.96;60.99
34241;BME280;20503;50.200;19.508;2024-02-04T04:56:21;101061.68;;;10.17;60.74
34241;BME280;20503;50.200;19.508;2024-02-04T04:57:22;101060.00;;;10.27;60.17
34241;BME280;20503;50.200;19.508;2024-02-04T04:58:24;101059.44;;;10.57;59.09
34241;BME280;20503;50.200;19.508;2024-02-04T04:59:26;101053.76;;;9.44;62.59
34241;BME280;20503;50.200;19.508;2024-02-04T05:00:27;101063.94;;;9.99;59.93
34241;BME280;20503;50.200;19.508;2024-02-04T05:01:28;101056.34;;;9.21;63.82
34241;BME280;20503;50.200;19.508;2024-02-04T05:02:36;101071.73;;;9.56;62.71
34241;BME280;20503;50.200;19.508;2024-02-04T05:03:37;101066.74;;;9.62;62.03
34241;BME280;20503;50.200;19.508;2024-02-04T05:04:44;101071.41;;;9.96;61.26
34241;BME280;20503;50.200;19.508;2024-02-04T05:05:46;101056.61;;;10.59;59.54
34241;BME280;20503;50.200;19.508;2024-02-04T05:06:47;101055.01;;;10.79;58.40
34241;BME280;20503;50.200;19.508;2024-02-04T05:07:49;101059.70;;;10.66;58.62
34241;BME280;20503;50.200;19.508;2024-02-04T05:08:50;101067.54;;;10.11;60.62
34241;BME280;20503;50.200;19.508;2024-02-04T05:09:52;101071.69;;;10.04;60.47
34241;BME280;20503;50.200;19.508;2024-02-04T05:10:53;101059.34;;;9.29;63.86
34241;BME280;20503;50.200;19.508;2024-02-04T05:11:54;101068.39;;;9.52;63.01
34241;BME280;20503;50.200;19.508;2024-02-04T05:12:55;101060.00;;;9.68;62.64
34241;BME280;20503;50.200;19.508;2024-02-04T05:13:57;101070.55;;;9.95;61.62
34241;BME280;20503;50.200;19.508;2024-02-04T05:14:58;101065.18;;;10.53;60.92
34241;BME280;20503;50.200;19.508;2024-02-04T05:16:00;101065.08;;;10.77;59.24
34241;BME280;20503;50.200;19.508;2024-02-04T05:17:01;101060.54;;;10.66;58.55
34241;BME280;20503;50.200;19.508;2024-02-04T05:18:03;101058.69;;;10.55;60.12
34241;BME280;20503;50.200;19.508;2024-02-04T05:19:05;101058.98;;;10.17;60.90
34241;BME280;20503;50.200;19.508;2024-02-04T05:20:07;101059.28;;;10.25;61.47
34241;BME280;20503;50.200;19.508;2024-02-04T05:21:18;101063.98;;;10.46;60.40
34241;BME280;20503;50.200;19.508;2024-02-04T05:22:19;101055.13;;;10.55;59.40
34241;BME280;20503;50.200;19.508;2024-02-04T05:23:20;101069.79;;;9.58;63.26
34241;BME280;20503;50.200;19.508;2024-02-04T05:24:22;101068.56;;;9.86;62.93
34241;BME280;20503;50.200;19.508;2024-02-04T05:25:24;101076.09;;;10.05;61.67
34241;BME280;20503;50.200;19.508;2024-02-04T05:26:26;101080.27;;;9.98;62.04
34241;BME280;20503;50.200;19.508;2024-02-04T05:27:27;101087.52;;;10.08;61.62
34241;BME280;20503;50.200;19.508;2024-02-04T05:28:29;101093.76;;;9.26;64.20
34241;BME280;20503;50.200;19.508;2024-02-04T05:29:33;101096.73;;;10.06;63.01
34241;BME280;20503;50.200;19.508;2024-02-04T05:30:34;101092.55;;;10.02;62.28
34241;BME280;20503;50.200;19.508;2024-02-04T05:31:41;101098.67;;;9.32;62.99
34241;BME280;20503;50.200;19.508;2024-02-04T05:32:43;101080.37;;;8.36;67.09